createdAt,value
2023-05-19T00:02:20.311Z,39.73
2023-05-19T00:04:47.823Z,39.28
2023-05-19T00:07:16.591Z,39.32
2023-05-19T00:09:43.593Z,39.21
2023-05-19T00:12:11.669Z,39.34
2023-05-19T00:14:38.719Z,39.78
2023-05-19T00:17:06.048Z,40.09
2023-05-19T00:19:33.469Z,40.05
2023-05-19T00:22:00.328Z,40.17
2023-05-19T00:24:27.454Z,39.96
2023-05-19T00:26:54.530Z,39.85
2023-05-19T00:29:21.740Z,39.88
2023-05-19T00:31:48.635Z,40.07
2023-05-19T00:34:15.575Z,40.03
2023-05-19T00:36:42.910Z,40.09
2023-05-19T00:39:09.778Z,39.95
2023-05-19T00:41:36.687Z,39.98
2023-05-19T00:44:03.836Z,39.82
2023-05-19T00:46:31.033Z,39.69
2023-05-19T00:48:58.468Z,39.93
2023-05-19T00:51:25.924Z,40.17
2023-05-19T00:53:53.001Z,39.96
2023-05-19T00:56:21.433Z,39.91
2023-05-19T00:58:50.377Z,39.99
2023-05-19T01:01:20.874Z,40.19
2023-05-19T01:03:47.811Z,40.28
2023-05-19T01:06:15.333Z,40.22
2023-05-19T01:08:43.341Z,40.18
2023-05-19T01:11:10.349Z,40.20
2023-05-19T01:13:40.310Z,40.29
2023-05-19T01:16:20.947Z,40.28
2023-05-19T01:19:01.464Z,40.38
2023-05-19T01:22:00.541Z,40.61
2023-05-19T01:24:31.788Z,40.83
2023-05-19T01:27:04.781Z,40.87
2023-05-19T01:29:37.984Z,41.00
2023-05-19T01:32:05.053Z,40.89
2023-05-19T01:34:33.762Z,40.86
2023-05-19T01:37:03.582Z,40.80
2023-05-19T01:39:30.811Z,40.94
2023-05-19T01:41:57.833Z,41.10
2023-05-19T01:44:24.865Z,40.73
2023-05-19T01:46:51.988Z,41.06
2023-05-19T01:49:19.336Z,41.19
2023-05-19T01:51:46.162Z,41.20
2023-05-19T01:54:13.082Z,41.17
2023-05-19T01:56:45.009Z,41.30
2023-05-19T01:59:20.311Z,41.69
2023-05-19T02:01:53.980Z,41.82
2023-05-19T02:04:29.885Z,42.03
2023-05-19T02:07:04.481Z,42.62
2023-05-19T02:09:50.143Z,42.84
2023-05-19T02:12:37.136Z,42.83
2023-05-19T02:15:10.250Z,43.08
2023-05-19T02:17:41.200Z,43.25
2023-05-19T02:20:10.159Z,43.55
2023-05-19T02:22:38.314Z,43.44
2023-05-19T02:25:07.951Z,43.63
2023-05-19T02:27:36.277Z,44.37
2023-05-19T02:30:04.247Z,44.75
2023-05-19T02:32:32.852Z,44.75
2023-05-19T02:35:00.091Z,44.92
2023-05-19T02:37:28.038Z,44.74
2023-05-19T02:39:55.084Z,45.18
2023-05-19T02:42:21.937Z,45.42
2023-05-19T02:44:49.182Z,45.23
2023-05-19T02:47:15.991Z,45.45
2023-05-19T02:49:43.663Z,45.41
2023-05-19T02:52:11.558Z,45.48
2023-05-19T02:54:39.280Z,45.60
2023-05-19T02:57:06.300Z,46.25
2023-05-19T02:59:33.299Z,46.41
2023-05-19T03:02:01.245Z,46.47
2023-05-19T03:04:29.315Z,46.57
2023-05-19T03:06:57.161Z,46.71
2023-05-19T03:09:24.338Z,46.73
2023-05-19T03:11:52.259Z,47.53
2023-05-19T03:14:23.224Z,47.10
2023-05-19T03:16:50.414Z,47.55
2023-05-19T03:19:17.925Z,47.30
2023-05-19T03:21:45.836Z,47.62
2023-05-19T03:24:13.219Z,47.51
2023-05-19T03:26:40.116Z,47.99
2023-05-19T03:29:07.664Z,48.24
2023-05-19T03:31:35.801Z,48.10
2023-05-19T03:34:03.724Z,47.57
2023-05-19T03:36:32.272Z,47.76
2023-05-19T03:39:00.302Z,48.21
2023-05-19T03:41:27.589Z,47.63
2023-05-19T03:43:54.925Z,48.17
2023-05-19T03:46:22.506Z,48.21
2023-05-19T03:48:55.624Z,48.69
2023-05-19T03:51:31.102Z,49.48
2023-05-19T03:54:07.066Z,49.92
2023-05-19T03:56:38.695Z,49.65
2023-05-19T03:59:10.011Z,50.37
2023-05-19T04:01:36.964Z,49.76
2023-05-19T04:04:04.330Z,50.44
2023-05-19T04:06:31.674Z,50.31
2023-05-19T04:08:59.593Z,50.19
2023-05-19T04:11:26.617Z,51.12
2023-05-19T04:13:53.591Z,50.64
2023-05-19T04:16:20.739Z,50.63
2023-05-19T04:18:48.108Z,50.35
2023-05-19T04:21:15.282Z,50.27
2023-05-19T04:23:42.121Z,50.57
2023-05-19T04:26:09.351Z,50.11
2023-05-19T04:28:39.478Z,50.25
2023-05-19T04:31:10.280Z,50.36
2023-05-19T04:33:38.502Z,50.28
2023-05-19T04:36:08.123Z,50.11
2023-05-19T04:38:36.504Z,50.04
2023-05-19T04:41:03.893Z,50.18
2023-05-19T04:43:34.216Z,50.21
2023-05-19T04:46:01.698Z,50.44
2023-05-19T04:48:30.513Z,50.54
2023-05-19T04:50:58.051Z,50.74
2023-05-19T04:53:25.406Z,51.02
2023-05-19T04:55:52.334Z,51.90
2023-05-19T04:58:19.434Z,52.36
2023-05-19T05:00:48.476Z,51.98
2023-05-19T05:03:15.944Z,51.68
2023-05-19T05:05:42.988Z,51.98
2023-05-19T05:08:11.316Z,52.47
2023-05-19T05:10:42.078Z,52.45
2023-05-19T05:13:11.609Z,52.45
2023-05-19T05:15:39.577Z,53.17
2023-05-19T05:18:07.187Z,52.77
2023-05-19T05:20:35.316Z,52.36
2023-05-19T05:23:02.894Z,52.13
2023-05-19T05:25:31.338Z,51.74
2023-05-19T05:27:59.481Z,51.71
2023-05-19T05:30:30.425Z,52.28
2023-05-19T05:32:58.727Z,53.43
2023-05-19T05:35:37.869Z,53.19
2023-05-19T05:38:06.060Z,53.78
2023-05-19T05:40:33.067Z,54.88
2023-05-19T05:43:00.190Z,54.91
2023-05-19T05:45:29.193Z,54.61
2023-05-19T05:47:57.119Z,54.10
2023-05-19T05:50:24.522Z,54.01
2023-05-19T05:52:52.131Z,53.42
2023-05-19T05:55:19.661Z,53.33
2023-05-19T05:57:48.433Z,54.07
2023-05-19T06:00:16.688Z,52.92
2023-05-19T06:02:46.883Z,52.41
2023-05-19T06:05:14.312Z,52.17
2023-05-19T06:07:41.701Z,52.85
2023-05-19T06:10:09.540Z,52.67
2023-05-19T06:12:40.380Z,51.72
2023-05-19T06:15:07.891Z,51.21
2023-05-19T06:17:50.393Z,51.31
2023-05-19T06:20:17.755Z,50.82
2023-05-19T06:22:45.031Z,50.56
2023-05-19T06:25:13.430Z,50.81
2023-05-19T06:27:40.851Z,50.48
2023-05-19T06:30:09.137Z,50.23
2023-05-19T06:32:45.632Z,49.95
2023-05-19T06:35:12.913Z,50.51
2023-05-19T06:37:39.839Z,50.37
2023-05-19T06:40:07.913Z,49.82
2023-05-19T06:42:34.967Z,49.58
2023-05-19T06:45:15.375Z,49.68
2023-05-19T06:47:43.944Z,49.72
2023-05-19T06:50:11.399Z,49.45
2023-05-19T06:52:40.694Z,49.92
2023-05-19T06:55:07.799Z,49.97
2023-05-19T06:57:36.279Z,50.64
2023-05-19T07:00:05.362Z,51.45
2023-05-19T07:02:33.022Z,51.68
2023-05-19T07:05:00.185Z,51.76
2023-05-19T07:07:27.611Z,52.79
2023-05-19T07:09:55.787Z,52.41
2023-05-19T07:12:26.031Z,52.34
2023-05-19T07:14:54.184Z,50.97
2023-05-19T07:17:21.190Z,50.86
2023-05-19T07:19:48.357Z,50.87
2023-05-19T07:22:15.766Z,51.14
2023-05-19T07:24:42.738Z,51.02
2023-05-19T07:27:09.713Z,51.06
2023-05-19T07:29:37.068Z,50.84
2023-05-19T07:32:04.465Z,50.12
2023-05-19T07:34:31.552Z,49.64
2023-05-19T07:36:58.555Z,49.38
2023-05-19T07:39:28.986Z,49.45
2023-05-19T07:41:56.596Z,49.51
2023-05-19T07:44:23.517Z,49.14
2023-05-19T07:46:50.642Z,48.75
2023-05-19T07:49:17.593Z,48.23
2023-05-19T07:51:44.890Z,48.15
2023-05-19T07:54:11.994Z,48.10
2023-05-19T07:56:38.908Z,48.25
2023-05-19T07:59:07.526Z,48.55
2023-05-19T08:01:35.140Z,48.34
2023-05-19T08:04:02.325Z,47.13
2023-05-19T08:06:29.700Z,46.78
2023-05-19T08:08:56.610Z,47.81
2023-05-19T08:11:23.620Z,46.43
2023-05-19T08:13:51.284Z,46.68
2023-05-19T08:16:18.296Z,46.64
2023-05-19T08:18:45.613Z,45.43
2023-05-19T08:21:14.125Z,44.83
2023-05-19T08:23:41.561Z,44.21
2023-05-19T08:26:08.483Z,44.06
2023-05-19T08:28:35.689Z,43.72
2023-05-19T08:31:02.623Z,42.59
2023-05-19T08:33:29.711Z,42.23
2023-05-19T08:35:57.763Z,42.23
2023-05-19T08:38:25.890Z,41.50
2023-05-19T08:40:53.045Z,41.49
2023-05-19T08:43:20.086Z,41.07
2023-05-19T08:45:47.723Z,41.09
2023-05-19T08:48:16.540Z,40.71
2023-05-19T08:51:04.990Z,40.35
2023-05-19T08:53:43.538Z,40.36
2023-05-19T08:56:12.406Z,39.79
2023-05-19T08:58:40.910Z,39.46
2023-05-19T09:01:07.849Z,38.27
2023-05-19T09:03:38.742Z,38.16
2023-05-19T09:06:09.119Z,38.50
2023-05-19T09:08:36.842Z,37.93
2023-05-19T09:11:04.042Z,37.97
2023-05-19T09:13:31.212Z,37.08
2023-05-19T09:15:58.067Z,37.17
2023-05-19T09:18:26.086Z,37.21
2023-05-19T09:21:01.745Z,37.23
2023-05-19T09:23:35.603Z,37.09
2023-05-19T09:26:03.903Z,36.89
2023-05-19T09:28:32.694Z,36.56
2023-05-19T09:31:03.564Z,37.00
2023-05-19T09:33:32.813Z,37.06
2023-05-19T09:36:00.197Z,37.09
2023-05-19T09:38:27.446Z,36.93
2023-05-19T09:40:58.193Z,37.13
2023-05-19T09:43:33.122Z,37.09
2023-05-19T09:46:03.246Z,36.35
2023-05-19T09:48:30.346Z,36.83
2023-05-19T09:50:57.681Z,36.73
2023-05-19T09:53:25.060Z,37.18
2023-05-19T09:55:56.812Z,37.06
2023-05-19T09:58:24.673Z,37.61
2023-05-19T10:00:54.075Z,38.06
2023-05-19T10:03:22.775Z,38.26
2023-05-19T10:05:50.650Z,38.59
2023-05-19T10:08:17.619Z,38.28
2023-05-19T10:10:47.794Z,38.06
2023-05-19T10:13:16.021Z,37.79
2023-05-19T10:15:57.426Z,37.37
2023-05-19T10:18:27.266Z,37.10
2023-05-19T10:20:54.454Z,36.97
2023-05-19T10:23:21.807Z,36.28
2023-05-19T10:25:49.376Z,36.45
2023-05-19T10:28:16.903Z,36.79
2023-05-19T10:30:48.286Z,37.26
2023-05-19T10:33:17.000Z,36.71
2023-05-19T10:35:56.433Z,36.64
2023-05-19T10:38:56.508Z,36.23
2023-05-19T10:41:46.931Z,35.93
2023-05-19T10:44:32.684Z,34.77
2023-05-19T10:46:59.570Z,34.49
2023-05-19T10:49:26.476Z,34.08
2023-05-19T10:51:55.973Z,33.65
2023-05-19T10:54:42.783Z,34.25
2023-05-19T10:57:14.547Z,34.10
2023-05-19T10:59:41.571Z,33.59
2023-05-19T11:02:08.733Z,33.85
2023-05-19T11:04:48.873Z,34.31
2023-05-19T11:07:19.337Z,34.54
2023-05-19T11:09:52.432Z,34.23
2023-05-19T11:12:24.649Z,34.66
2023-05-19T11:14:53.593Z,34.55
2023-05-19T11:17:23.229Z,34.47
2023-05-19T11:19:54.147Z,34.35
2023-05-19T11:22:25.460Z,33.98
2023-05-19T11:26:44.779Z,35.74
2023-05-19T11:29:12.124Z,34.39
2023-05-19T11:31:39.379Z,34.51
2023-05-19T11:34:07.563Z,34.29
2023-05-19T11:36:36.559Z,33.94
2023-05-19T11:39:03.972Z,34.31
2023-05-19T11:41:31.464Z,34.55
2023-05-19T11:43:58.683Z,34.40
2023-05-19T11:46:25.875Z,33.85
2023-05-19T11:48:54.223Z,33.98
2023-05-19T11:51:22.010Z,33.78
2023-05-19T11:53:49.877Z,33.74
2023-05-19T11:56:17.180Z,33.53
2023-05-19T11:58:44.439Z,33.77
2023-05-19T12:01:11.537Z,33.67
2023-05-19T12:03:38.956Z,33.59
2023-05-19T12:06:08.563Z,32.55
2023-05-19T12:08:36.659Z,32.46
2023-05-19T12:11:04.070Z,32.72
2023-05-19T12:13:31.365Z,32.92
2023-05-19T12:16:02.159Z,32.79
2023-05-19T12:18:31.101Z,32.91
2023-05-19T12:20:58.152Z,32.74
2023-05-19T12:23:25.362Z,32.63
2023-05-19T12:25:52.821Z,32.89
2023-05-19T12:28:20.041Z,33.22
2023-05-19T12:30:48.371Z,33.80
2023-05-19T12:33:16.389Z,34.08
2023-05-19T12:35:43.599Z,34.21
2023-05-19T12:38:10.754Z,34.29
2023-05-19T12:40:42.557Z,33.98
2023-05-19T12:43:19.339Z,34.14
2023-05-19T12:45:46.763Z,34.40
2023-05-19T12:48:16.951Z,34.38
2023-05-19T12:50:45.213Z,34.31
2023-05-19T12:53:13.205Z,34.28
2023-05-19T12:55:42.434Z,34.39
2023-05-19T12:58:09.962Z,34.18
2023-05-19T13:00:47.951Z,34.68
2023-05-19T13:03:16.768Z,34.29
2023-05-19T13:05:46.806Z,34.92
2023-05-19T13:08:15.652Z,34.85
2023-05-19T13:10:45.852Z,34.94
2023-05-19T13:13:13.155Z,34.62
2023-05-19T13:15:49.070Z,34.09
2023-05-19T13:18:16.686Z,34.26
2023-05-19T13:20:44.632Z,34.23
2023-05-19T13:23:12.157Z,34.03
2023-05-19T13:25:39.397Z,34.33
2023-05-19T13:28:06.863Z,34.52
2023-05-19T13:30:35.411Z,34.08
2023-05-19T13:33:03.036Z,34.52
2023-05-19T13:35:30.953Z,34.59
2023-05-19T13:37:58.445Z,34.15
2023-05-19T13:40:28.347Z,33.82
2023-05-19T13:42:55.620Z,33.93
2023-05-19T13:45:22.768Z,34.33
2023-05-19T13:47:49.906Z,34.27
2023-05-19T13:50:17.130Z,34.63
2023-05-19T13:52:45.226Z,34.47
2023-05-19T13:55:12.378Z,34.24
2023-05-19T13:57:40.050Z,34.45
2023-05-19T14:00:10.418Z,35.10
2023-05-19T14:02:40.793Z,35.25
2023-05-19T14:05:08.264Z,35.30
2023-05-19T14:07:35.970Z,35.66
2023-05-19T14:10:04.167Z,35.69
2023-05-19T14:12:39.753Z,35.77
2023-05-19T14:15:15.140Z,35.43
2023-05-19T14:17:42.374Z,35.64
2023-05-19T14:20:10.158Z,36.33
2023-05-19T14:22:37.286Z,36.34
2023-05-19T14:25:04.572Z,36.45
2023-05-19T14:27:31.804Z,36.98
2023-05-19T14:29:59.029Z,36.82
2023-05-19T14:32:27.993Z,36.96
2023-05-19T14:34:57.296Z,37.14
2023-05-19T14:37:26.751Z,37.56
2023-05-19T14:39:54.019Z,38.43
2023-05-19T14:42:21.081Z,38.43
2023-05-19T14:44:48.264Z,38.66
2023-05-19T14:47:15.451Z,39.04
2023-05-19T14:49:42.685Z,38.72
2023-05-19T14:52:10.104Z,39.16
2023-05-19T14:54:37.200Z,39.48
2023-05-19T14:57:04.694Z,39.95
2023-05-19T14:59:32.027Z,40.18
2023-05-19T15:01:59.133Z,40.62
2023-05-19T15:04:26.568Z,40.92
2023-05-19T15:07:05.843Z,41.12
2023-05-19T15:09:36.717Z,40.90
2023-05-19T15:12:04.288Z,41.36
2023-05-19T15:14:31.724Z,42.03
2023-05-19T15:16:59.267Z,41.93
2023-05-19T15:19:26.883Z,41.85
2023-05-19T15:21:54.241Z,42.49
2023-05-19T15:24:21.391Z,42.81
2023-05-19T15:26:48.847Z,42.97
2023-05-19T15:29:16.006Z,42.49
2023-05-19T15:31:43.247Z,42.44
2023-05-19T15:34:10.948Z,42.47
2023-05-19T15:36:38.059Z,43.02
2023-05-19T15:39:06.734Z,43.23
2023-05-19T15:41:33.937Z,43.10
2023-05-19T15:44:02.395Z,43.53
2023-05-19T15:46:29.904Z,43.49
2023-05-19T15:48:57.241Z,43.95
2023-05-19T15:51:24.858Z,44.54
2023-05-19T15:53:52.109Z,44.40
2023-05-19T15:56:22.701Z,44.44
2023-05-19T15:58:50.015Z,45.12
2023-05-19T16:01:17.152Z,45.10
2023-05-19T16:03:45.945Z,45.32
2023-05-19T16:06:13.337Z,45.34
2023-05-19T16:08:40.498Z,45.74
2023-05-19T16:11:07.724Z,46.21
2023-05-19T16:13:34.855Z,46.27
2023-05-19T16:16:02.324Z,46.66
2023-05-19T16:18:29.598Z,47.40
2023-05-19T16:20:56.798Z,47.16
2023-05-19T16:23:24.941Z,46.85
2023-05-19T16:25:52.563Z,47.32
2023-05-19T16:28:20.965Z,47.88
2023-05-19T16:30:49.047Z,48.31
2023-05-19T16:33:16.333Z,49.04
2023-05-19T16:35:43.432Z,49.33
2023-05-19T16:38:10.571Z,49.28
2023-05-19T16:40:38.418Z,50.24
2023-05-19T16:43:05.569Z,50.70
2023-05-19T16:45:32.775Z,50.88
2023-05-19T16:48:00.020Z,50.49
2023-05-19T16:50:27.151Z,51.57
2023-05-19T16:52:54.435Z,52.14
2023-05-19T16:55:23.050Z,52.88
2023-05-19T16:57:50.206Z,52.63
2023-05-19T17:00:17.398Z,53.04
2023-05-19T17:02:44.654Z,53.52
2023-05-19T17:05:11.992Z,54.57
2023-05-19T17:07:39.069Z,54.68
2023-05-19T17:10:06.736Z,55.54
2023-05-19T17:12:33.811Z,56.81
2023-05-19T17:15:00.917Z,56.66
2023-05-19T17:17:28.308Z,57.83
2023-05-19T17:19:55.436Z,58.47
2023-05-19T17:22:22.793Z,59.72
2023-05-19T17:24:49.817Z,60.18
2023-05-19T17:27:16.948Z,61.27
2023-05-19T17:29:44.286Z,62.79
2023-05-19T17:32:11.720Z,63.54
2023-05-19T17:34:39.425Z,65.13
2023-05-19T17:37:06.574Z,65.07
2023-05-19T17:39:34.131Z,65.19
2023-05-19T17:42:02.013Z,65.48
2023-05-19T17:44:28.981Z,66.13
2023-05-19T17:46:56.514Z,69.09
2023-05-19T17:49:25.830Z,67.60
2023-05-19T17:51:53.408Z,68.70
2023-05-19T17:54:22.327Z,67.55
2023-05-19T17:56:49.401Z,71.70
2023-05-19T17:59:16.813Z,70.50
2023-05-19T18:01:44.402Z,70.57
2023-05-19T18:04:13.215Z,71.52
2023-05-19T18:06:41.957Z,71.78
2023-05-19T18:09:09.391Z,71.24
2023-05-19T18:11:36.500Z,72.15
2023-05-19T18:14:03.700Z,72.46
2023-05-19T18:16:31.074Z,72.96
2023-05-19T18:18:58.714Z,73.75
2023-05-19T18:21:26.969Z,74.43
2023-05-19T18:23:54.132Z,75.25
2023-05-19T18:26:21.669Z,74.79
2023-05-19T18:28:48.805Z,74.99
2023-05-19T18:31:19.609Z,75.30
2023-05-19T18:33:47.324Z,76.38
2023-05-19T18:36:16.705Z,76.44
2023-05-19T18:38:44.028Z,77.44
2023-05-19T18:41:11.217Z,77.82
2023-05-19T18:43:39.117Z,78.69
2023-05-19T18:46:06.463Z,79.09
2023-05-19T18:48:33.584Z,82.42
2023-05-19T18:51:00.723Z,79.76
2023-05-19T18:53:27.982Z,78.79
2023-05-19T18:55:55.317Z,78.50
2023-05-19T18:58:22.472Z,79.67
2023-05-19T19:00:50.532Z,80.16
2023-05-19T19:03:17.790Z,79.26
2023-05-19T19:05:46.406Z,78.76
2023-05-19T19:08:13.904Z,79.37
2023-05-19T19:10:42.628Z,78.59
2023-05-19T19:13:09.711Z,78.80
2023-05-19T19:15:36.916Z,79.25
2023-05-19T19:18:05.440Z,80.25
2023-05-19T19:20:33.695Z,80.34
2023-05-19T19:23:03.252Z,81.59
2023-05-19T19:25:30.331Z,82.50
2023-05-19T19:27:57.378Z,82.95
2023-05-19T19:30:25.452Z,82.58
2023-05-19T19:32:53.267Z,82.25
2023-05-19T19:35:21.098Z,82.56
2023-05-19T19:37:48.244Z,83.28
2023-05-19T19:40:15.326Z,84.08
2023-05-19T19:42:42.544Z,85.10
2023-05-19T19:45:12.107Z,86.12
2023-05-19T19:47:41.139Z,86.46
2023-05-19T19:50:09.311Z,85.64
2023-05-19T19:52:37.143Z,85.23
2023-05-19T19:55:04.647Z,85.94
2023-05-19T19:57:34.411Z,86.94
2023-05-19T20:00:08.136Z,86.66
2023-05-19T20:02:41.020Z,88.12
2023-05-19T20:05:14.235Z,87.90
2023-05-19T20:07:41.716Z,86.96
2023-05-19T20:10:09.171Z,87.92
2023-05-19T20:12:36.251Z,87.82
2023-05-19T20:15:03.291Z,88.58
2023-05-19T20:17:30.663Z,87.56
2023-05-19T20:19:59.176Z,87.79
2023-05-19T20:22:26.423Z,87.98
2023-05-19T20:24:53.421Z,86.96
2023-05-19T20:27:20.763Z,88.27
2023-05-19T20:29:47.831Z,87.79
2023-05-19T20:32:15.058Z,87.30
2023-05-19T20:34:42.337Z,88.98
2023-05-19T20:37:09.440Z,89.23
2023-05-19T20:39:36.693Z,87.99
2023-05-19T20:42:03.823Z,88.69
2023-05-19T20:44:31.132Z,89.17
2023-05-19T20:46:58.171Z,89.36
2023-05-19T20:49:25.456Z,89.11
2023-05-19T20:51:52.507Z,89.34
2023-05-19T20:54:20.429Z,89.40
2023-05-19T20:56:48.057Z,89.61
2023-05-19T20:59:15.088Z,88.71
2023-05-19T21:01:42.483Z,89.03
2023-05-19T21:04:09.775Z,89.31
2023-05-19T21:06:36.938Z,89.54
2023-05-19T21:09:06.954Z,91.10
2023-05-19T21:11:34.629Z,90.40
2023-05-19T21:14:04.876Z,90.41
2023-05-19T21:16:32.328Z,90.69
2023-05-19T21:19:00.052Z,89.72
2023-05-19T21:21:27.569Z,90.03
2023-05-19T21:23:54.558Z,90.09
2023-05-19T21:26:22.315Z,88.73
2023-05-19T21:28:49.437Z,89.21
2023-05-19T21:31:16.741Z,89.69
2023-05-19T21:33:44.271Z,89.55
2023-05-19T21:36:11.414Z,90.29
2023-05-19T21:38:38.443Z,90.66
2023-05-19T21:41:05.588Z,90.34
2023-05-19T21:43:32.822Z,90.30
2023-05-19T21:46:00.103Z,89.57
2023-05-19T21:48:27.351Z,89.71
2023-05-19T21:50:55.220Z,89.81
2023-05-19T21:53:22.215Z,89.55
2023-05-19T21:55:49.422Z,91.48
2023-05-19T21:58:16.726Z,89.40
2023-05-19T22:00:49.257Z,88.69
2023-05-19T22:03:16.571Z,90.17
2023-05-19T22:05:52.372Z,89.71
2023-05-19T22:08:20.134Z,90.84
2023-05-19T22:10:51.225Z,89.81
2023-05-19T22:13:21.989Z,90.07
2023-05-19T22:15:49.456Z,90.73
2023-05-19T22:18:17.061Z,89.64
2023-05-19T22:20:44.676Z,90.32
2023-05-19T22:23:11.722Z,90.49
2023-05-19T22:25:38.942Z,90.40
2023-05-19T22:28:08.119Z,90.11
2023-05-19T22:30:41.113Z,90.31
2023-05-19T22:33:09.130Z,90.98
2023-05-19T22:35:36.237Z,90.19
2023-05-19T22:38:03.348Z,92.35
2023-05-19T22:40:30.972Z,89.92
2023-05-19T22:42:58.065Z,90.37
2023-05-19T22:45:25.716Z,89.86
2023-05-19T22:47:55.224Z,90.05
2023-05-19T22:50:22.533Z,90.24
2023-05-19T22:52:49.700Z,89.92
2023-05-19T22:55:16.849Z,89.75
2023-05-19T22:57:44.192Z,89.31
2023-05-19T23:00:14.370Z,90.79
2023-05-19T23:02:42.060Z,90.46
2023-05-19T23:05:09.443Z,90.32
2023-05-19T23:07:36.546Z,90.21
2023-05-19T23:10:06.187Z,89.75
2023-05-19T23:12:33.634Z,90.45
2023-05-19T23:15:00.931Z,89.43
2023-05-19T23:17:28.109Z,90.35
2023-05-19T23:19:55.887Z,90.50
2023-05-19T23:22:23.106Z,90.16
2023-05-19T23:24:50.184Z,89.92
2023-05-19T23:27:17.210Z,89.50
2023-05-19T23:29:50.852Z,90.20
2023-05-19T23:32:18.078Z,90.34
2023-05-19T23:34:47.449Z,90.15
2023-05-19T23:37:14.656Z,90.40
2023-05-19T23:39:41.985Z,89.74
2023-05-19T23:43:13.504Z,99.05
2023-05-19T23:45:41.123Z,92.15
2023-05-19T23:48:08.444Z,91.49
2023-05-19T23:50:35.955Z,90.23
2023-05-19T23:53:03.030Z,90.15
2023-05-19T23:55:30.271Z,89.87
2023-05-19T23:57:57.517Z,90.23
